Time;durP1;ratioP1;P1;durP2;ratioP2;P2;SDS_P1;SDS_P2;PMS_P1;PMS_P2;Temp;Humidity;BMP_temperature;BMP_pressure;BME280_temperature;BME280_humidity;BME280_pressure;Samples;Min_cycle;Max_cycle;Signal;HPM_P1;HPM_P2
2023/07/18 00:00:25;;;;;;;2.50;2.40;;;19.50;99.90;;;19.94;75.04;101963.91;5055312;28;20041;-74
2023/07/18 00:02:54;;;;;;;2.47;2.38;;;19.50;99.90;;;19.94;75.04;101957.69;5055249;28;20455;-73
2023/07/18 00:05:22;;;;;;;2.80;2.70;;;19.50;99.90;;;19.94;75.02;101955.84;5055189;28;20487;-74
2023/07/18 00:07:52;;;;;;;2.63;2.53;;;19.50;99.90;;;19.99;75.17;101955.75;5054905;28;20098;-74
2023/07/18 00:10:21;;;;;;;2.85;2.75;;;19.50;99.90;;;19.97;75.21;101957.59;5055663;28;20063;-73
2023/07/18 00:12:50;;;;;;;2.83;2.72;;;19.50;99.90;;;20.01;75.00;101954.78;5051077;28;20091;-74
2023/07/18 00:15:19;;;;;;;2.83;2.72;;;19.60;99.90;;;20.00;75.28;101953.00;5054668;28;20115;-73
2023/07/18 00:17:47;;;;;;;2.30;2.20;;;19.60;99.90;;;20.00;75.35;101963.75;5054728;28;20049;-73
2023/07/18 00:20:18;;;;;;;2.60;2.50;;;19.60;99.90;;;19.97;75.46;101952.22;5054615;28;20052;-73
2023/07/18 00:22:49;;;;;;;2.72;2.63;;;19.60;99.90;;;19.97;75.54;101957.59;5054615;28;20043;-73
2023/07/18 00:25:21;;;;;;;2.70;2.60;;;19.60;99.90;;;19.99;75.73;101955.75;5054618;28;20378;-73
2023/07/18 00:27:53;;;;;;;2.97;2.88;;;19.60;99.90;;;20.04;75.66;101948.44;5054578;28;20128;-73
2023/07/18 00:30:23;;;;;;;2.40;2.30;;;19.60;99.90;;;20.02;75.67;101943.09;5051395;28;20053;-73
2023/07/18 00:32:52;;;;;;;2.63;2.53;;;19.60;99.90;;;20.04;75.54;101949.31;5054628;28;20045;-73
2023/07/18 00:35:20;;;;;;;2.78;2.67;;;19.60;99.90;;;20.04;75.72;101953.81;5054422;28;20580;-73
2023/07/18 00:37:50;;;;;;;2.47;2.38;;;19.60;99.90;;;20.07;75.68;101954.63;5053298;28;20056;-73
2023/07/18 00:40:20;;;;;;;2.92;2.83;;;19.60;99.90;;;19.95;75.59;101935.25;5054544;28;20049;-73
2023/07/18 00:42:48;;;;;;;3.00;2.90;;;19.60;99.90;;;20.05;75.64;101952.91;5053278;28;20498;-73
2023/07/18 00:45:17;;;;;;;2.40;2.30;;;19.60;99.90;;;20.00;75.66;101952.13;5054515;28;20124;-73
2023/07/18 00:47:49;;;;;;;2.67;2.58;;;19.60;99.90;;;20.02;75.66;101956.53;5066329;28;20049;-74
2023/07/18 00:50:19;;;;;;;2.60;2.50;;;19.60;99.90;;;19.87;75.55;101945.31;5054068;28;20124;-73
2023/07/18 00:52:49;;;;;;;2.63;2.53;;;19.60;99.90;;;19.97;75.73;101965.66;5054309;28;20054;-74
2023/07/18 00:55:20;;;;;;;2.72;2.63;;;19.60;99.90;;;19.96;75.82;101962.06;5061657;28;20079;-73
2023/07/18 00:57:49;;;;;;;2.53;2.42;;;19.60;99.90;;;19.95;75.72;101954.06;5053962;28;20556;-74
2023/07/18 01:00:22;;;;;;;2.60;2.50;;;19.50;99.90;;;19.97;75.73;101954.91;5061507;28;20048;-73
2023/07/18 01:02:51;;;;;;;2.58;2.47;;;19.60;99.90;;;19.92;75.72;101946.09;5048827;28;20053;-73
2023/07/18 01:05:20;;;;;;;2.35;2.25;;;19.60;99.90;;;19.93;76.02;101946.03;5061445;28;20053;-74
2023/07/18 01:07:50;;;;;;;2.40;2.30;;;19.60;99.90;;;19.90;76.08;101937.19;5053764;28;20540;-74
2023/07/18 01:10:24;;;;;;;2.40;2.30;;;19.50;99.90;;;19.91;76.07;101938.94;5052675;28;20405;-74
2023/07/18 01:12:55;;;;;;;3.80;3.58;;;19.50;99.90;;;19.94;76.03;101931.69;5052195;28;20498;-74
2023/07/18 01:15:29;;;;;;;2.78;2.67;;;19.50;99.90;;;19.90;76.26;101945.25;5049751;28;20037;-74
2023/07/18 01:17:58;;;;;;;2.30;2.20;;;19.50;99.90;;;19.85;75.98;101937.28;5050751;28;20075;-74
2023/07/18 01:20:28;;;;;;;2.58;2.47;;;19.40;99.90;;;19.82;75.43;101931.13;5052446;28;20041;-73
2023/07/18 01:23:03;;;;;;;2.90;2.80;;;19.40;99.90;;;19.79;75.42;101921.34;5053782;28;20049;-74
2023/07/18 01:25:33;;;;;;;2.63;2.53;;;19.40;99.90;;;19.76;75.75;101935.72;5053767;28;20053;-74
2023/07/18 01:28:03;;;;;;;2.67;2.58;;;19.40;99.90;;;19.80;75.30;101923.97;5053984;28;20378;-74
2023/07/18 01:30:31;;;;;;;2.58;2.47;;;19.40;99.90;;;19.79;75.10;101922.22;5049193;28;20127;-73
2023/07/18 01:33:00;;;;;;;2.50;2.40;;;19.40;99.90;;;19.80;75.28;101928.47;5053506;28;20075;-73
2023/07/18 01:35:28;;;;;;;2.70;2.60;;;19.40;99.90;;;19.74;75.21;101920.59;5053011;28;20128;-73
2023/07/18 01:37:59;;;;;;;2.53;2.42;;;19.40;99.90;;;19.50;75.42;101922.06;5053475;28;20048;-73
2023/07/18 01:40:27;;;;;;;;;;;19.20;99.90;;;19.04;78.14;101912.41;5052587;28;20118;-74
2023/07/18 01:42:58;;;;;;;2.92;2.83;;;18.70;99.90;;;19.01;78.54;101909.81;5053347;28;20263;-74
2023/07/18 01:45:28;;;;;;;2.92;2.83;;;18.50;99.90;;;18.95;78.59;101897.38;5053086;28;20447;-74
2023/07/18 01:47:58;;;;;;;2.97;2.88;;;18.50;99.90;;;18.93;78.72;101904.56;5053373;28;20041;-74
2023/07/18 01:50:26;;;;;;;2.67;2.58;;;18.50;99.90;;;18.92;78.74;101911.75;5049609;28;20076;-74
2023/07/18 01:52:58;;;;;;;3.05;2.95;;;18.50;99.90;;;18.88;78.83;101907.38;5051887;28;20091;-73
2023/07/18 01:55:28;;;;;;;2.50;2.40;;;18.50;99.90;;;18.93;78.52;101915.31;5052943;28;20044;-74
2023/07/18 01:58:00;;;;;;;2.67;2.58;;;18.50;99.90;;;18.93;78.63;101910.84;5051854;28;20049;-74
2023/07/18 02:00:31;;;;;;;2.92;2.83;;;18.50;99.90;;;18.96;78.38;101904.53;5068169;28;20131;-73
2023/07/18 02:02:59;;;;;;;2.72;2.63;;;18.50;99.90;;;18.93;78.63;101908.16;5053125;28;20103;-73
2023/07/18 02:05:31;;;;;;;2.65;2.55;;;18.50;99.90;;;18.97;78.81;101913.47;5047870;28;20048;-73
2023/07/18 02:08:01;;;;;;;2.70;2.60;;;18.50;99.90;;;18.95;79.14;101915.28;5053002;28;20131;-73
2023/07/18 02:10:29;;;;;;;2.70;2.60;;;18.50;99.90;;;18.99;78.96;101907.13;5053003;28;20048;-73
2023/07/18 02:13:01;;;;;;;2.33;2.22;;;18.50;99.90;;;19.01;78.69;101905.28;5052551;28;20378;-74
2023/07/18 02:15:30;;;;;;;2.72;2.63;;;18.60;99.90;;;19.06;78.62;101900.72;5052201;28;20053;-73
2023/07/18 02:17:58;;;;;;;2.72;2.63;;;18.60;99.90;;;19.04;78.76;101893.63;5052652;28;20071;-74
2023/07/18 02:20:27;;;;;;;2.80;2.70;;;18.70;99.90;;;19.04;78.71;101890.94;5052812;28;20041;-73
2023/07/18 02:22:56;;;;;;;2.80;2.70;;;18.70;99.90;;;19.07;78.44;101896.22;5052785;28;20053;-73
2023/07/18 02:25:26;;;;;;;2.60;2.50;;;18.70;99.90;;;19.06;78.47;101889.09;5049271;28;20119;-73
2023/07/18 02:27:55;;;;;;;2.75;2.65;;;18.70;99.90;;;19.09;78.23;101889.03;5053048;28;20037;-73
2023/07/18 02:30:23;;;;;;;2.70;2.60;;;18.70;99.90;;;19.10;78.11;101889.00;5052433;28;20133;-73
2023/07/18 02:32:53;;;;;;;2.67;2.58;;;18.70;99.90;;;19.16;77.74;101894.25;5052696;28;20049;-72
2023/07/18 02:35:23;;;;;;;2.83;2.72;;;18.80;99.90;;;19.13;77.98;101898.75;5052618;28;20486;-72
2023/07/18 02:37:51;;;;;;;2.83;2.73;;;18.70;99.90;;;19.13;77.79;101896.97;5052714;28;20048;-72
2023/07/18 02:40:19;;;;;;;2.30;2.20;;;18.70;99.90;;;19.08;77.67;101901.56;5051192;28;20135;-72
2023/07/18 02:42:49;;;;;;;2.58;2.47;;;18.70;99.90;;;19.03;77.84;101894.56;5052323;28;20494;-72
2023/07/18 02:45:18;;;;;;;2.60;2.50;;;18.60;99.90;;;19.01;77.66;101899.06;5049101;28;20079;-72
2023/07/18 02:47:46;;;;;;;2.60;2.50;;;18.60;99.90;;;18.82;77.51;101874.44;5052802;28;20041;-72
2023/07/18 02:50:14;;;;;;;2.55;2.45;;;18.50;99.90;;;18.87;77.28;101894.88;5048803;28;20049;-72
2023/07/18 02:52:43;;;;;;;2.53;2.42;;;18.50;99.90;;;18.85;77.43;101896.72;5052564;28;20075;-72
2023/07/18 02:55:11;;;;;;;2.92;2.83;;;18.50;99.90;;;18.82;77.56;101904.84;5051115;28;20098;-74
2023/07/18 02:57:39;;;;;;;2.40;2.30;;;18.40;99.90;;;18.80;77.78;101897.72;5052450;28;20119;-72
2023/07/18 03:00:19;;;;;;;2.65;2.55;;;18.30;99.90;;;18.76;77.82;101898.72;5051097;28;20383;-72
2023/07/18 03:02:51;;;;;;;2.83;2.72;;;18.30;99.90;;;18.75;77.98;101897.84;5064335;28;20056;-72
2023/07/18 03:05:21;;;;;;;2.50;2.40;;;18.30;99.90;;;18.59;78.00;101882.09;5051187;28;20402;-72
2023/07/18 03:07:50;;;;;;;2.65;2.55;;;18.30;99.90;;;18.72;78.21;101895.22;5065997;28;20045;-72
2023/07/18 03:10:19;;;;;;;2.70;2.60;;;18.30;99.90;;;18.76;78.38;101898.72;5052076;28;20498;-73
2023/07/18 03:12:49;;;;;;;2.70;2.60;;;18.30;99.90;;;18.70;78.56;101893.47;5052312;28;20094;-73
2023/07/18 03:15:22;;;;;;;2.95;2.85;;;18.30;99.90;;;18.71;78.73;101881.84;5050992;28;20449;-72
2023/07/18 03:17:51;;;;;;;2.97;2.88;;;18.30;99.90;;;18.72;78.95;101897.00;5048673;28;20543;-73
2023/07/18 03:20:19;;;;;;;3.15;3.05;;;18.30;99.90;;;18.70;79.06;101885.44;5059587;28;20076;-73
2023/07/18 03:22:51;;;;;;;2.65;2.55;;;18.30;99.90;;;18.63;79.56;101892.75;5052302;28;20044;-72
2023/07/18 03:25:22;;;;;;;2.58;2.47;;;18.20;99.90;;;18.67;79.62;101891.75;5052644;28;20056;-73
2023/07/18 03:27:52;;;;;;;2.73;2.63;;;18.30;99.90;;;18.66;79.81;101894.47;5055587;28;20596;-72
2023/07/18 03:30:22;;;;;;;2.47;2.38;;;18.20;99.90;;;18.66;79.97;101884.63;5055497;28;20490;-73
2023/07/18 03:32:51;;;;;;;3.40;3.20;;;18.20;99.90;;;18.65;79.67;101887.34;5055920;28;20048;-73
2023/07/18 03:35:20;;;;;;;2.53;2.42;;;18.30;99.90;;;18.66;79.71;101889.13;5050819;28;20055;-72
2023/07/18 03:37:49;;;;;;;2.80;2.70;;;18.20;99.90;;;18.64;79.98;101891.81;5054429;28;20399;-72
2023/07/18 03:40:17;;;;;;;2.97;2.88;;;18.20;99.90;;;18.60;79.74;101892.78;5052127;28;20483;-72
2023/07/18 03:42:46;;;;;;;2.60;2.50;;;18.20;99.90;;;18.50;79.94;101888.56;5055643;28;20123;-72
2023/07/18 03:45:17;;;;;;;3.38;3.28;;;18.20;99.90;;;18.51;79.91;101889.41;5055652;28;20429;-73
2023/07/18 03:47:47;;;;;;;2.70;2.60;;;18.10;99.90;;;18.52;79.82;101886.72;5055530;28;20053;-73
2023/07/18 03:50:17;;;;;;;2.40;2.30;;;18.10;99.90;;;18.47;79.97;101883.25;5055519;28;20066;-72
2023/07/18 03:52:45;;;;;;;2.55;2.45;;;18.10;99.90;;;18.39;80.15;101890.50;5055198;28;20301;-72
2023/07/18 03:55:14;;;;;;;2.90;2.80;;;18.00;99.90;;;18.27;80.41;101877.38;5051603;28;20037;-72
2023/07/18 03:57:42;;;;;;;21.13;3.92;;;18.00;99.90;;;18.41;80.09;101891.38;5055084;28;20041;-72
2023/07/18 04:00:17;;;;;;;2.45;2.35;;;18.00;99.90;;;18.44;80.22;101896.72;5055368;28;20474;-73
2023/07/18 04:02:50;;;;;;;2.85;2.75;;;18.00;99.90;;;18.47;80.12;101893.97;5055352;28;20139;-72
2023/07/18 04:05:19;;;;;;;2.40;2.30;;;18.10;99.90;;;18.48;80.15;101890.38;5055031;28;20046;-72
2023/07/18 04:07:48;;;;;;;2.75;2.65;;;18.10;99.90;;;18.41;80.03;101888.69;5054921;28;20085;-72
2023/07/18 04:10:16;;;;;;;2.83;2.72;;;18.10;99.90;;;18.47;80.01;101896.63;5051021;28;20083;-72
2023/07/18 04:12:45;;;;;;;2.80;2.70;;;18.00;99.90;;;18.50;80.09;101901.06;5054893;28;20052;-72
2023/07/18 04:15:14;;;;;;;2.85;2.75;;;18.10;99.90;;;18.51;80.12;101893.00;5054957;28;20048;-72
2023/07/18 04:17:44;;;;;;;2.50;2.40;;;18.10;99.90;;;18.54;80.24;101890.22;5054822;28;20041;-73
2023/07/18 04:20:14;;;;;;;2.80;2.70;;;18.10;99.90;;;18.47;80.34;101875.19;5054707;28;20044;-72
2023/07/18 04:22:42;;;;;;;2.78;2.67;;;18.20;99.90;;;18.56;80.41;101880.38;5054965;28;20055;-72
2023/07/18 04:25:11;;;;;;;2.92;2.83;;;18.20;99.90;;;18.60;80.28;101887.44;5054516;28;20398;-72
2023/07/18 04:27:40;;;;;;;2.72;2.63;;;18.20;99.90;;;18.62;80.35;101882.91;5054580;28;20128;-72
2023/07/18 04:30:10;;;;;;;2.97;2.88;;;18.20;99.90;;;18.64;80.22;101886.44;5054752;28;20115;-73
2023/07/18 04:32:40;;;;;;;2.50;2.40;;;18.30;99.90;;;18.66;80.21;101883.75;5050710;28;20056;-73
2023/07/18 04:35:09;;;;;;;2.63;2.53;;;18.30;99.90;;;18.59;80.15;101866.03;5053311;28;20099;-73
2023/07/18 04:37:39;;;;;;;2.80;2.70;;;18.30;99.90;;;18.70;80.14;101875.59;5053875;28;20318;-73
2023/07/18 04:40:10;;;;;;;2.60;2.50;;;18.30;99.90;;;18.61;80.19;101856.16;5054347;28;20521;-72
2023/07/18 04:42:38;;;;;;;2.60;2.50;;;18.30;99.90;;;18.71;80.29;101880.06;5054599;28;20048;-73
2023/07/18 04:45:07;;;;;;;2.70;2.60;;;18.30;99.90;;;18.75;80.29;101873.72;5054737;28;20107;-72
2023/07/18 04:47:36;;;;;;;2.90;2.80;;;18.30;99.90;;;18.73;80.39;101875.56;5054483;28;20053;-73
2023/07/18 04:50:06;;;;;;;2.53;2.42;;;18.40;99.90;;;18.68;80.63;101855.97;5050095;28;20045;-73
2023/07/18 04:52:34;;;;;;;2.63;2.53;;;18.30;99.90;;;18.77;80.70;101871.00;5054085;28;20048;-72
2023/07/18 04:55:04;;;;;;;2.70;2.60;;;18.40;99.90;;;18.79;81.22;101864.66;5053923;28;20041;-72
2023/07/18 04:57:34;;;;;;;3.00;2.90;;;18.40;99.90;;;18.76;81.86;101872.78;5054329;28;20102;-73
2023/07/18 05:00:05;;;;;;;5.47;4.05;;;18.40;99.90;;;18.78;82.22;101862.91;5053928;28;20053;-73
2023/07/18 05:02:33;;;;;;;11.80;6.25;;;18.40;99.90;;;18.80;82.74;101863.75;5054489;28;20076;-73
2023/07/18 05:05:02;;;;;;;3.15;3.05;;;18.40;99.90;;;18.93;82.99;101854.53;5054024;28;20133;-73
2023/07/18 05:07:30;;;;;;;2.67;2.58;;;18.50;99.90;;;19.00;83.21;101857.06;5054041;28;20041;-72
2023/07/18 05:09:59;;;;;;;3.17;3.08;;;18.60;99.90;;;19.06;83.12;101863.19;5053654;28;20410;-72
2023/07/18 05:12:28;;;;;;;2.78;2.67;;;18.70;99.90;;;19.09;83.08;101862.19;5053698;28;20131;-73
2023/07/18 05:14:57;;;;;;;3.13;3.03;;;18.70;99.90;;;19.05;83.17;101857.84;5053603;28;20045;-73
2023/07/18 05:17:25;;;;;;;3.15;3.05;;;18.70;99.90;;;19.07;82.97;101854.19;5053606;28;20045;-73
2023/07/18 05:19:53;;;;;;;2.90;2.80;;;18.70;99.90;;;19.16;83.07;101863.84;5053483;28;20398;-73
2023/07/18 05:22:22;;;;;;;2.90;2.80;;;18.80;99.90;;;19.19;82.88;101859.28;5053782;28;20045;-73
2023/07/18 05:24:50;;;;;;;2.70;2.60;;;18.80;99.90;;;19.21;82.97;101873.53;5053420;28;20095;-73
2023/07/18 05:27:18;;;;;;;2.88;2.78;;;18.80;99.90;;;19.21;83.01;101867.28;5053623;28;20052;-73
2023/07/18 05:29:48;;;;;;;2.50;2.40;;;18.80;99.90;;;19.27;83.14;101872.50;5053584;28;20072;-73
2023/07/18 05:32:17;;;;;;;3.03;2.92;;;18.90;99.90;;;19.27;83.19;101875.19;5053520;28;20059;-73
2023/07/18 05:34:45;;;;;;;2.58;2.47;;;18.90;99.90;;;19.29;83.33;101873.34;5049231;28;20103;-73
2023/07/18 05:37:13;;;;;;;4.35;3.95;;;19.00;99.90;;;19.28;83.59;101872.47;5049393;28;20049;-73
2023/07/18 05:39:42;;;;;;;3.00;2.90;;;18.90;99.90;;;19.28;83.72;101875.16;5053397;28;20119;-73
2023/07/18 05:42:10;;;;;;;3.35;3.25;;;18.90;99.90;;;19.30;84.12;101875.13;5053069;28;20064;-73
2023/07/18 05:44:39;;;;;;;2.70;2.60;;;18.90;99.90;;;19.36;84.37;101877.69;5053047;28;20041;-73
2023/07/18 05:47:08;;;;;;;2.70;2.60;;;19.00;99.90;;;19.28;84.27;101875.16;5052977;28;20136;-73
2023/07/18 05:49:37;;;;;;;2.60;2.50;;;19.00;99.90;;;19.35;84.66;101881.28;5053216;28;20080;-73
2023/07/18 05:52:06;;;;;;;2.80;2.70;;;19.00;99.90;;;19.39;85.16;101873.16;5053008;28;20086;-73
2023/07/18 05:54:34;;;;;;;2.58;2.47;;;19.00;99.90;;;19.40;85.36;101872.19;5052898;28;20409;-73
2023/07/18 05:57:07;;;;;;;2.67;2.58;;;19.00;99.90;;;19.39;85.67;101877.63;5047809;28;20049;-73
2023/07/18 05:59:35;;;;;;;2.70;2.60;;;19.00;99.90;;;19.45;86.02;101885.53;5052819;28;20513;-73
2023/07/18 06:02:04;;;;;;;3.47;3.33;;;19.10;99.90;;;19.42;86.02;101889.16;5052793;28;20068;-74
2023/07/18 06:04:37;;;;;;;2.95;2.78;;;19.10;99.90;;;19.32;86.56;101898.34;5052822;28;20448;-73
2023/07/18 06:07:07;;;;;;;3.80;3.50;;;19.00;99.90;;;19.37;86.71;101888.41;5052846;28;20081;-73
2023/07/18 06:09:35;;;;;;;2.95;2.85;;;19.00;99.90;;;19.40;86.76;101887.41;5052675;28;20052;-73
2023/07/18 06:12:04;;;;;;;2.95;2.85;;;19.00;99.90;;;19.35;86.89;101898.28;5052673;28;20068;-73
2023/07/18 06:14:33;;;;;;;3.58;3.38;;;19.00;99.90;;;19.38;87.17;101900.00;5052688;28;20076;-74
2023/07/18 06:17:02;;;;;;;2.60;2.50;;;19.00;99.90;;;19.40;87.51;101895.47;5048849;28;20072;-74
2023/07/18 06:19:31;;;;;;;4.13;3.85;;;19.00;99.90;;;19.38;87.54;101902.66;5052531;28;20084;-74
2023/07/18 06:22:02;;;;;;;3.15;3.05;;;19.00;99.90;;;19.34;87.87;101906.34;5052535;28;20056;-73
2023/07/18 06:24:30;;;;;;;3.22;2.88;;;19.00;99.90;;;19.33;88.24;101907.28;5052839;28;20057;-73
2023/07/18 06:26:59;;;;;;;2.90;2.80;;;19.00;99.90;;;19.40;88.46;101907.09;5052342;28;20468;-74
2023/07/18 06:29:27;;;;;;;3.50;3.30;;;19.00;99.90;;;19.49;88.55;101909.53;5052378;28;20502;-73
2023/07/18 06:31:56;;;;;;;3.75;3.58;;;19.10;99.90;;;19.47;88.46;101918.56;5052586;28;20098;-73
2023/07/18 06:34:24;;;;;;;2.85;2.75;;;19.10;99.90;;;19.46;88.66;101906.06;5052391;28;20572;-74
2023/07/18 06:36:53;;;;;;;2.97;2.88;;;19.10;99.90;;;19.56;88.50;101921.03;5052313;28;20095;-74
2023/07/18 06:39:22;;;;;;;3.42;3.33;;;19.10;99.90;;;19.58;88.62;101906.66;5048454;28;20048;-73
2023/07/18 06:41:51;;;;;;;2.90;2.80;;;19.20;99.90;;;19.61;88.11;101913.72;5051311;28;20052;-74
2023/07/18 06:44:19;;;;;;;3.53;3.22;;;19.20;99.90;;;19.62;88.07;101904.78;5052267;28;20367;-74
2023/07/18 06:46:47;;;;;;;3.20;3.10;;;19.30;99.90;;;19.58;87.98;101909.34;5052522;28;20124;-74
2023/07/18 06:49:18;;;;;;;2.53;2.42;;;19.20;99.90;;;19.64;88.01;101910.97;5052213;28;20063;-74
2023/07/18 06:51:46;;;;;;;3.22;3.13;;;19.20;99.90;;;19.66;87.83;101898.41;5052313;28;20049;-74
2023/07/18 06:54:14;;;;;;;3.83;3.63;;;19.30;99.90;;;19.72;87.90;101914.38;5052484;28;20072;-74
2023/07/18 06:56:45;;;;;;;3.13;3.03;;;19.30;99.90;;;19.72;87.54;101906.31;5052012;28;20188;-73
2023/07/18 06:59:13;;;;;;;3.42;3.30;;;19.30;99.90;;;19.55;87.32;101887.06;5052249;28;20055;-74
2023/07/18 07:01:43;;;;;;;4.90;4.60;;;19.30;99.90;;;19.52;87.42;101898.75;5050987;28;20049;-73
2023/07/18 07:04:11;;;;;;;3.75;3.45;;;19.30;99.90;;;19.71;87.71;101893.78;5056009;28;20128;-73
2023/07/18 07:06:41;;;;;;;2.70;2.60;;;19.30;99.90;;;19.76;87.51;101886.50;5055861;28;20067;-73
2023/07/18 07:09:12;;;;;;;3.03;2.92;;;19.40;99.90;;;19.78;87.30;101895.41;5055985;28;20410;-74
2023/07/18 07:11:41;;;;;;;2.67;2.58;;;19.40;99.90;;;19.78;87.05;101890.03;5056265;28;20079;-74
2023/07/18 07:14:12;;;;;;;2.95;2.85;;;19.40;99.90;;;19.72;86.95;101871.41;5056420;28;20045;-74
2023/07/18 07:16:40;;;;;;;3.85;3.55;;;19.50;99.90;;;19.92;86.36;101895.91;5056138;28;20041;-74
2023/07/18 07:19:09;;;;;;;3.25;3.05;;;19.50;99.90;;;19.94;86.48;101903.97;5055774;28;20472;-74
2023/07/18 07:21:37;;;;;;;3.03;2.83;;;19.60;99.90;;;19.99;86.39;101891.28;5052269;28;20055;-74
2023/07/18 07:24:06;;;;;;;3.45;3.25;;;19.60;99.90;;;20.05;86.24;101909.91;5056026;28;20115;-73
2023/07/18 07:26:37;;;;;;;3.42;3.20;;;19.70;99.90;;;20.10;86.17;101903.50;5055923;28;20089;-74
2023/07/18 07:29:07;;;;;;;2.67;2.58;;;19.70;99.90;;;20.12;85.71;101904.34;5055679;28;20053;-74
2023/07/18 07:31:37;;;;;;;2.40;2.30;;;19.70;99.90;;;20.15;85.96;101901.53;5055753;28;20099;-74
2023/07/18 07:34:06;;;;;;;3.47;3.20;;;19.80;99.90;;;20.20;85.85;101905.03;5055665;28;20420;-74
2023/07/18 07:36:34;;;;;;;2.47;2.38;;;19.80;99.90;;;20.17;85.44;101899.69;5055638;28;20128;-74
2023/07/18 07:39:04;;;;;;;2.78;2.67;;;19.80;99.90;;;20.22;85.01;101905.88;5055444;28;20044;-74
2023/07/18 07:41:32;;;;;;;2.90;2.80;;;19.90;99.90;;;20.29;84.70;101904.78;5051710;28;20045;-74
2023/07/18 07:44:01;;;;;;;3.15;3.05;;;20.00;99.90;;;20.36;84.06;101895.59;5055345;28;20037;-73
2023/07/18 07:46:32;;;;;;;2.60;2.50;;;20.00;99.90;;;20.32;84.06;101883.22;5055858;28;20064;-74
2023/07/18 07:49:02;;;;;;;2.70;2.60;;;20.10;99.90;;;20.52;83.63;101888.88;5054287;28;20049;-74
2023/07/18 07:51:34;;;;;;;2.80;2.70;;;20.10;99.90;;;20.59;83.08;101886.91;5055301;28;20049;-73
2023/07/18 07:54:02;;;;;;;3.03;2.92;;;20.20;99.90;;;20.71;83.46;101882.97;5055188;28;20061;-73
2023/07/18 07:56:30;;;;;;;2.40;2.30;;;20.40;99.90;;;20.66;82.33;101886.69;5055074;28;20045;-74
2023/07/18 07:58:59;;;;;;;3.63;3.42;;;20.30;99.90;;;20.74;82.13;101888.25;5050018;28;20053;-73
2023/07/18 08:01:39;;;;;;;3.28;3.17;;;20.40;99.90;;;20.89;81.90;101887.78;5053341;28;20040;-74
2023/07/18 08:04:11;;;;;;;3.08;2.88;;;20.50;99.90;;;21.04;81.40;101895.44;5055555;28;20583;-73
2023/07/18 08:06:40;;;;;;;2.63;2.53;;;20.60;99.90;;;21.15;81.58;101901.34;5055475;28;20049;-74
2023/07/18 08:09:08;;;;;;;2.58;2.47;;;20.80;99.90;;;21.20;80.14;101899.38;5055165;28;20494;-73
2023/07/18 08:11:37;;;;;;;2.70;2.60;;;20.80;99.90;;;21.24;79.20;101903.75;5050351;28;20080;-74
2023/07/18 08:14:05;;;;;;;2.47;2.38;;;20.80;99.90;;;21.32;79.57;101904.38;5069980;28;20041;-74
2023/07/18 08:16:33;;;;;;;2.72;2.63;;;20.90;99.90;;;21.35;79.32;101890.84;5054780;28;20153;-73
2023/07/18 08:19:02;;;;;;;2.80;2.70;;;21.00;99.90;;;21.36;78.48;101897.97;5055252;28;20037;-74
2023/07/18 08:21:32;;;;;;;2.80;2.70;;;21.00;99.90;;;21.41;78.94;101901.38;5054647;28;20049;-74
2023/07/18 08:24:00;;;;;;;3.37;3.17;;;21.00;99.90;;;21.41;78.54;101882.53;5054584;28;20048;-74
2023/07/18 08:26:28;;;;;;;2.40;2.30;;;21.20;99.90;;;21.38;77.79;101880.84;5054566;28;20048;-74
2023/07/18 08:28:57;;;;;;;2.53;2.42;;;21.20;99.90;;;21.61;78.11;101907.00;5054545;28;20918;-74
2023/07/18 08:31:25;;;;;;;6.63;4.18;;;21.30;99.90;;;21.62;77.42;101902.50;5054524;28;20506;-74
2023/07/18 08:33:54;;;;;;;3.42;3.22;;;21.30;99.90;;;21.69;77.55;101887.88;5054402;28;20123;-74
2023/07/18 08:36:22;;;;;;;2.60;2.50;;;21.30;99.90;;;21.83;78.12;101888.34;5054274;28;20418;-74
2023/07/18 08:38:52;;;;;;;2.38;2.28;;;21.40;99.90;;;21.87;77.90;101890.88;5050644;28;20410;-74
2023/07/18 08:41:20;;;;;;;2.83;2.72;;;21.50;99.90;;;21.87;77.00;101896.28;5061909;28;20053;-74
2023/07/18 08:43:50;;;;;;;2.50;2.40;;;21.50;99.90;;;21.70;77.01;101844.72;5054204;28;20131;-74
2023/07/18 08:46:19;;;;;;;3.25;3.15;;;21.60;99.90;;;21.96;76.49;101890.56;5054403;28;20442;-74
2023/07/18 08:48:48;;;;;;;2.88;2.78;;;21.60;99.90;;;21.89;76.17;101875.53;5054141;28;20063;-74
2023/07/18 08:51:17;;;;;;;2.42;2.33;;;21.70;99.90;;;22.16;76.04;101888.00;5054662;28;20056;-73
2023/07/18 08:53:46;;;;;;;2.45;2.35;;;21.80;99.90;;;22.34;76.40;101883.78;5053998;28;20045;-74
2023/07/18 08:56:16;;;;;;;2.47;2.38;;;21.90;99.90;;;22.39;75.42;101887.19;5054263;28;20064;-75
2023/07/18 08:58:44;;;;;;;2.93;2.83;;;22.00;99.90;;;22.52;74.86;101883.09;5050319;28;20045;-74
2023/07/18 09:01:13;;;;;;;2.30;2.20;;;22.10;99.90;;;22.58;75.10;101882.91;5053880;28;20045;-74
2023/07/18 09:03:42;;;;;;;2.45;2.35;;;22.20;99.90;;;22.74;74.98;101889.50;5053738;28;20029;-75
2023/07/18 09:06:19;;;;;;;2.72;2.63;;;22.40;99.90;;;22.67;73.55;101873.56;5053738;28;20049;-74
2023/07/18 09:08:48;;;;;;;2.47;2.38;;;22.40;99.90;;;22.56;72.92;101846.09;5053778;28;20052;-74
2023/07/18 09:11:21;;;;;;;24.88;3.45;;;22.40;99.90;;;22.70;73.61;101863.56;5053711;28;20041;-75
2023/07/18 09:13:50;;;;;;;2.72;2.63;;;22.40;99.90;;;22.81;72.81;101876.63;5050245;28;20057;-74
2023/07/18 09:16:21;;;;;;;2.33;2.22;;;22.50;99.90;;;22.89;73.00;101877.22;5053591;28;20056;-74
2023/07/18 09:18:51;;;;;;;2.30;2.20;;;22.50;99.90;;;23.03;73.62;101870.34;5053886;28;20053;-74
2023/07/18 09:21:21;;;;;;;2.50;2.40;;;22.60;99.90;;;23.16;72.77;101881.50;5053509;28;20538;-74
2023/07/18 09:23:52;;;;;;;2.85;2.75;;;22.80;99.90;;;23.18;72.26;101868.84;5053446;28;20088;-74
2023/07/18 09:26:23;;;;;;;2.40;2.20;;;22.90;99.90;;;23.17;71.40;101870.66;5053318;28;20045;-74
2023/07/18 09:28:52;;;;;;;2.65;2.55;;;22.90;99.90;;;23.13;70.71;101868.16;5049645;28;20056;-74
2023/07/18 09:31:23;;;;;;;2.25;2.15;;;22.90;99.90;;;23.19;70.89;101867.88;5053054;28;20060;-74
2023/07/18 09:33:54;;;;;;;2.10;2.00;;;22.90;99.90;;;23.37;70.41;101853.66;5053586;28;20482;-74
2023/07/18 09:36:24;;;;;;;;;;;23.00;99.90;;;23.38;69.22;101850.03;5053980;28;20439;-74
2023/07/18 09:38:53;;;;;;;2.55;2.45;;;23.10;99.90;;;23.46;69.31;101845.16;5053343;28;20397;-75
2023/07/18 09:41:23;;;;;;;2.30;2.20;;;23.20;99.90;;;23.49;68.86;101830.66;5052156;28;20089;-75
2023/07/18 09:43:54;;;;;;;2.28;2.17;;;23.30;99.90;;;23.70;68.64;101864.88;5053077;28;20060;-75
2023/07/18 09:46:43;;;;;;;2.17;2.08;;;23.30;99.90;;;23.87;68.62;101857.78;5052730;28;20048;-74
2023/07/18 09:49:12;;;;;;;2.15;2.05;;;23.50;99.90;;;23.88;68.40;101859.56;5053328;28;20059;-74
2023/07/18 09:51:49;;;;;;;2.30;2.20;;;23.60;99.90;;;23.95;67.74;101855.66;5049765;28;20045;-75
2023/07/18 09:54:18;;;;;;;2.90;2.80;;;23.60;99.90;;;23.41;67.03;101763.47;5052903;28;20073;-75
2023/07/18 09:56:49;;;;;;;2.22;2.13;;;23.60;99.90;;;23.99;67.25;101849.16;5052704;28;20561;-76
2023/07/18 09:59:18;;;;;;;2.38;2.28;;;23.70;99.90;;;24.09;67.00;101855.94;5052836;28;20569;-75
2023/07/18 10:01:48;;;;;;;2.70;2.60;;;23.70;99.90;;;24.15;64.89;101844.88;5052791;28;20041;-75
2023/07/18 10:04:19;;;;;;;;;;;23.90;99.90;;;24.31;64.10;101846.88;5049694;28;20127;-74
2023/07/18 10:06:49;;;;;;;2.10;2.00;;;24.00;99.90;;;24.25;63.17;101836.31;5052957;28;19992;-74
2023/07/18 10:09:18;;;;;;;2.70;2.60;;;23.90;99.90;;;24.29;63.63;101821.72;5052745;28;20107;-74
2023/07/18 10:12:12;;;;;;;2.10;2.00;;;24.00;99.90;;;24.54;62.84;101834.03;5060174;28;20078;-75
2023/07/18 10:14:57;;;;;;;2.03;1.92;;;24.20;99.90;;;24.66;62.55;101821.75;5050441;28;20049;-74
2023/07/18 10:17:44;;;;;;;26.33;3.97;;;24.40;99.90;;;24.59;61.35;101820.28;5048914;28;20068;-75
2023/07/18 10:20:15;;;;;;;2.35;2.25;;;24.40;99.90;;;24.76;61.26;101818.56;5052915;28;20053;-75
2023/07/18 10:22:49;;;;;;;2.17;2.08;;;24.40;99.90;;;24.86;60.93;101810.88;5052728;28;20056;-75